sensor_id;sensor_type;location;lat;lon;timestamp;P1;durP1;ratioP1;P2;durP2;ratioP2
77012;SDS011;67260;53.130;17.982;2023-06-22T00:02:21;11.30;;;7.80;;
77012;SDS011;67260;53.130;17.982;2023-06-22T00:04:47;10.80;;;8.40;;
77012;SDS011;67260;53.130;17.982;2023-06-22T00:07:13;10.50;;;7.90;;
77012;SDS011;67260;53.130;17.982;2023-06-22T00:09:39;11.50;;;8.00;;
77012;SDS011;67260;53.130;17.982;2023-06-22T00:12:05;13.30;;;8.60;;
77012;SDS011;67260;53.130;17.982;2023-06-22T00:14:32;13.90;;;10.00;;
77012;SDS011;67260;53.130;17.982;2023-06-22T00:19:24;20.10;;;16.40;;
77012;SDS011;67260;53.130;17.982;2023-06-22T00:24:23;18.30;;;13.20;;
77012;SDS011;67260;53.130;17.982;2023-06-22T00:26:49;19.60;;;13.10;;
77012;SDS011;67260;53.130;17.982;2023-06-22T00:29:16;16.30;;;11.50;;
77012;SDS011;67260;53.130;17.982;2023-06-22T00:31:42;14.80;;;11.20;;
77012;SDS011;67260;53.130;17.982;2023-06-22T00:34:09;17.90;;;11.30;;
77012;SDS011;67260;53.130;17.982;2023-06-22T00:36:35;13.80;;;9.80;;
77012;SDS011;67260;53.130;17.982;2023-06-22T00:39:03;14.90;;;11.10;;
77012;SDS011;67260;53.130;17.982;2023-06-22T00:41:31;11.70;;;9.50;;
77012;SDS011;67260;53.130;17.982;2023-06-22T00:43:57;12.80;;;9.30;;
77012;SDS011;67260;53.130;17.982;2023-06-22T00:46:23;11.50;;;8.80;;
77012;SDS011;67260;53.130;17.982;2023-06-22T00:48:50;12.10;;;9.00;;
77012;SDS011;67260;53.130;17.982;2023-06-22T00:51:17;13.30;;;8.90;;
77012;SDS011;67260;53.130;17.982;2023-06-22T00:53:50;12.30;;;9.30;;
77012;SDS011;67260;53.130;17.982;2023-06-22T00:56:17;12.10;;;8.30;;
77012;SDS011;67260;53.130;17.982;2023-06-22T00:58:45;13.30;;;9.40;;
77012;SDS011;67260;53.130;17.982;2023-06-22T01:01:13;13.60;;;9.20;;
77012;SDS011;67260;53.130;17.982;2023-06-22T01:03:39;12.00;;;8.40;;
77012;SDS011;67260;53.130;17.982;2023-06-22T01:06:10;10.90;;;7.90;;
77012;SDS011;67260;53.130;17.982;2023-06-22T01:08:49;13.60;;;8.30;;
77012;SDS011;67260;53.130;17.982;2023-06-22T01:11:26;13.00;;;9.20;;
77012;SDS011;67260;53.130;17.982;2023-06-22T01:14:06;12.60;;;8.60;;
77012;SDS011;67260;53.130;17.982;2023-06-22T01:16:37;11.60;;;8.20;;
77012;SDS011;67260;53.130;17.982;2023-06-22T01:21:55;10.10;;;7.80;;
77012;SDS011;67260;53.130;17.982;2023-06-22T01:24:27;16.40;;;9.70;;
77012;SDS011;67260;53.130;17.982;2023-06-22T01:27:18;11.30;;;8.00;;
77012;SDS011;67260;53.130;17.982;2023-06-22T01:29:50;11.30;;;8.10;;
77012;SDS011;67260;53.130;17.982;2023-06-22T01:32:18;10.30;;;7.60;;
77012;SDS011;67260;53.130;17.982;2023-06-22T01:34:45;11.30;;;7.20;;
77012;SDS011;67260;53.130;17.982;2023-06-22T01:37:14;10.40;;;7.20;;
77012;SDS011;67260;53.130;17.982;2023-06-22T01:39:41;10.00;;;7.20;;
77012;SDS011;67260;53.130;17.982;2023-06-22T01:42:08;9.50;;;6.80;;
77012;SDS011;67260;53.130;17.982;2023-06-22T01:44:34;9.30;;;6.80;;
77012;SDS011;67260;53.130;17.982;2023-06-22T01:47:02;9.10;;;7.20;;
77012;SDS011;67260;53.130;17.982;2023-06-22T01:49:28;10.70;;;6.80;;
77012;SDS011;67260;53.130;17.982;2023-06-22T01:51:56;9.30;;;6.30;;
77012;SDS011;67260;53.130;17.982;2023-06-22T01:54:23;10.40;;;6.90;;
77012;SDS011;67260;53.130;17.982;2023-06-22T01:56:49;10.40;;;6.50;;
77012;SDS011;67260;53.130;17.982;2023-06-22T01:59:18;9.70;;;6.80;;
77012;SDS011;67260;53.130;17.982;2023-06-22T02:01:54;11.20;;;6.30;;
77012;SDS011;67260;53.130;17.982;2023-06-22T02:04:28;8.80;;;6.20;;
77012;SDS011;67260;53.130;17.982;2023-06-22T02:07:15;10.30;;;5.60;;
77012;SDS011;67260;53.130;17.982;2023-06-22T02:09:45;9.20;;;5.80;;
77012;SDS011;67260;53.130;17.982;2023-06-22T02:12:16;8.90;;;5.80;;
77012;SDS011;67260;53.130;17.982;2023-06-22T02:14:44;10.20;;;6.20;;
77012;SDS011;67260;53.130;17.982;2023-06-22T02:17:12;9.60;;;6.30;;
77012;SDS011;67260;53.130;17.982;2023-06-22T02:19:40;11.30;;;6.80;;
77012;SDS011;67260;53.130;17.982;2023-06-22T02:22:07;9.40;;;6.90;;
77012;SDS011;67260;53.130;17.982;2023-06-22T02:24:33;10.20;;;7.30;;
77012;SDS011;67260;53.130;17.982;2023-06-22T02:26:59;9.10;;;6.50;;
77012;SDS011;67260;53.130;17.982;2023-06-22T02:29:26;10.60;;;6.60;;
77012;SDS011;67260;53.130;17.982;2023-06-22T02:31:53;11.20;;;7.00;;
77012;SDS011;67260;53.130;17.982;2023-06-22T02:34:21;9.20;;;6.70;;
77012;SDS011;67260;53.130;17.982;2023-06-22T02:36:48;9.80;;;6.80;;
77012;SDS011;67260;53.130;17.982;2023-06-22T02:39:21;9.30;;;6.90;;
77012;SDS011;67260;53.130;17.982;2023-06-22T02:41:52;8.80;;;6.70;;
77012;SDS011;67260;53.130;17.982;2023-06-22T02:44:19;9.00;;;6.80;;
77012;SDS011;67260;53.130;17.982;2023-06-22T02:46:47;10.10;;;5.90;;
77012;SDS011;67260;53.130;17.982;2023-06-22T02:49:14;9.60;;;6.10;;
77012;SDS011;67260;53.130;17.982;2023-06-22T02:54:08;8.80;;;5.80;;
77012;SDS011;67260;53.130;17.982;2023-06-22T02:56:35;9.50;;;5.70;;
77012;SDS011;67260;53.130;17.982;2023-06-22T02:59:02;10.20;;;5.60;;
77012;SDS011;67260;53.130;17.982;2023-06-22T03:01:33;7.80;;;5.30;;
77012;SDS011;67260;53.130;17.982;2023-06-22T03:04:06;9.00;;;4.90;;
77012;SDS011;67260;53.130;17.982;2023-06-22T03:06:33;8.20;;;4.80;;
77012;SDS011;67260;53.130;17.982;2023-06-22T03:09:00;7.60;;;4.90;;
77012;SDS011;67260;53.130;17.982;2023-06-22T03:11:27;8.10;;;4.50;;
77012;SDS011;67260;53.130;17.982;2023-06-22T03:13:53;10.30;;;5.60;;
77012;SDS011;67260;53.130;17.982;2023-06-22T03:16:19;10.40;;;4.50;;
77012;SDS011;67260;53.130;17.982;2023-06-22T03:18:45;9.40;;;5.10;;
77012;SDS011;67260;53.130;17.982;2023-06-22T03:21:12;8.80;;;4.70;;
77012;SDS011;67260;53.130;17.982;2023-06-22T03:23:38;9.30;;;5.20;;
77012;SDS011;67260;53.130;17.982;2023-06-22T03:26:05;8.50;;;5.10;;
77012;SDS011;67260;53.130;17.982;2023-06-22T03:28:31;10.60;;;5.00;;
77012;SDS011;67260;53.130;17.982;2023-06-22T03:30:57;8.80;;;5.40;;
77012;SDS011;67260;53.130;17.982;2023-06-22T03:33:24;9.50;;;5.50;;
77012;SDS011;67260;53.130;17.982;2023-06-22T03:35:50;9.30;;;5.20;;
77012;SDS011;67260;53.130;17.982;2023-06-22T03:38:16;7.00;;;4.80;;
77012;SDS011;67260;53.130;17.982;2023-06-22T03:40:42;10.40;;;5.00;;
77012;SDS011;67260;53.130;17.982;2023-06-22T03:43:09;11.30;;;5.90;;
77012;SDS011;67260;53.130;17.982;2023-06-22T03:48:01;9.00;;;5.10;;
77012;SDS011;67260;53.130;17.982;2023-06-22T03:50:27;7.80;;;4.80;;
77012;SDS011;67260;53.130;17.982;2023-06-22T03:52:53;8.20;;;4.70;;
77012;SDS011;67260;53.130;17.982;2023-06-22T03:57:45;8.40;;;4.80;;
77012;SDS011;67260;53.130;17.982;2023-06-22T04:00:12;7.50;;;4.20;;
77012;SDS011;67260;53.130;17.982;2023-06-22T04:02:40;8.50;;;4.30;;
77012;SDS011;67260;53.130;17.982;2023-06-22T04:07:32;9.80;;;4.20;;
77012;SDS011;67260;53.130;17.982;2023-06-22T04:12:24;8.50;;;3.80;;
77012;SDS011;67260;53.130;17.982;2023-06-22T04:14:50;9.90;;;4.20;;
77012;SDS011;67260;53.130;17.982;2023-06-22T04:17:15;8.00;;;3.90;;
77012;SDS011;67260;53.130;17.982;2023-06-22T04:19:43;6.60;;;3.70;;
77012;SDS011;67260;53.130;17.982;2023-06-22T04:22:09;7.70;;;3.80;;
77012;SDS011;67260;53.130;17.982;2023-06-22T04:24:35;7.00;;;4.00;;
77012;SDS011;67260;53.130;17.982;2023-06-22T04:27:01;7.30;;;4.00;;
77012;SDS011;67260;53.130;17.982;2023-06-22T04:29:31;7.20;;;3.70;;
77012;SDS011;67260;53.130;17.982;2023-06-22T04:31:57;7.30;;;3.70;;
77012;SDS011;67260;53.130;17.982;2023-06-22T04:34:24;7.70;;;3.60;;
77012;SDS011;67260;53.130;17.982;2023-06-22T04:36:53;6.40;;;3.80;;
77012;SDS011;67260;53.130;17.982;2023-06-22T04:39:19;8.10;;;3.50;;
77012;SDS011;67260;53.130;17.982;2023-06-22T04:41:45;7.50;;;3.60;;
77012;SDS011;67260;53.130;17.982;2023-06-22T04:46:38;6.20;;;3.40;;
77012;SDS011;67260;53.130;17.982;2023-06-22T04:49:07;7.10;;;3.80;;
77012;SDS011;67260;53.130;17.982;2023-06-22T04:51:36;6.70;;;4.30;;
77012;SDS011;67260;53.130;17.982;2023-06-22T04:54:06;6.40;;;3.40;;
77012;SDS011;67260;53.130;17.982;2023-06-22T04:56:33;6.50;;;3.40;;
77012;SDS011;67260;53.130;17.982;2023-06-22T04:59:00;7.00;;;3.40;;
77012;SDS011;67260;53.130;17.982;2023-06-22T05:01:26;6.00;;;3.40;;
77012;SDS011;67260;53.130;17.982;2023-06-22T05:03:52;7.80;;;3.70;;
77012;SDS011;67260;53.130;17.982;2023-06-22T05:06:21;6.90;;;3.20;;
77012;SDS011;67260;53.130;17.982;2023-06-22T05:08:53;5.50;;;2.90;;
77012;SDS011;67260;53.130;17.982;2023-06-22T05:11:26;6.40;;;3.40;;
77012;SDS011;67260;53.130;17.982;2023-06-22T05:13:53;6.40;;;3.80;;
77012;SDS011;67260;53.130;17.982;2023-06-22T05:16:20;5.40;;;3.30;;
77012;SDS011;67260;53.130;17.982;2023-06-22T05:18:53;6.80;;;3.50;;
77012;SDS011;67260;53.130;17.982;2023-06-22T05:21:21;6.00;;;3.30;;
77012;SDS011;67260;53.130;17.982;2023-06-22T05:23:49;6.60;;;3.20;;
77012;SDS011;67260;53.130;17.982;2023-06-22T05:26:15;6.50;;;3.90;;
77012;SDS011;67260;53.130;17.982;2023-06-22T05:28:41;12.60;;;3.20;;
77012;SDS011;67260;53.130;17.982;2023-06-22T05:31:07;5.80;;;3.00;;
77012;SDS011;67260;53.130;17.982;2023-06-22T05:33:33;6.20;;;3.10;;
77012;SDS011;67260;53.130;17.982;2023-06-22T05:35:59;5.40;;;3.00;;
77012;SDS011;67260;53.130;17.982;2023-06-22T05:38:25;6.40;;;3.30;;
77012;SDS011;67260;53.130;17.982;2023-06-22T05:40:51;6.90;;;3.00;;
77012;SDS011;67260;53.130;17.982;2023-06-22T05:43:17;7.20;;;2.90;;
77012;SDS011;67260;53.130;17.982;2023-06-22T05:45:43;5.30;;;2.80;;
77012;SDS011;67260;53.130;17.982;2023-06-22T05:48:09;5.80;;;3.20;;
77012;SDS011;67260;53.130;17.982;2023-06-22T05:50:36;5.60;;;2.80;;
77012;SDS011;67260;53.130;17.982;2023-06-22T05:53:03;5.50;;;2.90;;
77012;SDS011;67260;53.130;17.982;2023-06-22T05:55:29;5.10;;;2.60;;
77012;SDS011;67260;53.130;17.982;2023-06-22T05:57:56;4.40;;;2.80;;
77012;SDS011;67260;53.130;17.982;2023-06-22T06:00:23;5.70;;;2.50;;
77012;SDS011;67260;53.130;17.982;2023-06-22T06:02:50;6.80;;;2.70;;
77012;SDS011;67260;53.130;17.982;2023-06-22T06:05:22;5.80;;;2.80;;
77012;SDS011;67260;53.130;17.982;2023-06-22T06:07:52;5.30;;;2.70;;
77012;SDS011;67260;53.130;17.982;2023-06-22T06:10:21;5.80;;;2.80;;
77012;SDS011;67260;53.130;17.982;2023-06-22T06:12:48;7.30;;;2.70;;
77012;SDS011;67260;53.130;17.982;2023-06-22T06:15:15;6.90;;;2.40;;
77012;SDS011;67260;53.130;17.982;2023-06-22T06:17:46;4.50;;;2.30;;
77012;SDS011;67260;53.130;17.982;2023-06-22T06:20:13;4.60;;;2.30;;
77012;SDS011;67260;53.130;17.982;2023-06-22T06:22:39;5.30;;;2.10;;
77012;SDS011;67260;53.130;17.982;2023-06-22T06:25:16;5.40;;;1.90;;
77012;SDS011;67260;53.130;17.982;2023-06-22T06:27:47;5.70;;;2.10;;
77012;SDS011;67260;53.130;17.982;2023-06-22T06:30:17;6.30;;;2.10;;
77012;SDS011;67260;53.130;17.982;2023-06-22T06:32:45;5.60;;;2.10;;
77012;SDS011;67260;53.130;17.982;2023-06-22T06:35:14;5.20;;;2.10;;
77012;SDS011;67260;53.130;17.982;2023-06-22T06:37:43;4.10;;;2.00;;
77012;SDS011;67260;53.130;17.982;2023-06-22T06:40:14;4.00;;;2.20;;
77012;SDS011;67260;53.130;17.982;2023-06-22T06:42:42;6.10;;;2.10;;
77012;SDS011;67260;53.130;17.982;2023-06-22T06:45:20;5.20;;;2.00;;
77012;SDS011;67260;53.130;17.982;2023-06-22T06:48:04;5.00;;;1.90;;
77012;SDS011;67260;53.130;17.982;2023-06-22T06:51:50;3.20;;;1.60;;
77012;SDS011;67260;53.130;17.982;2023-06-22T06:54:20;4.60;;;2.00;;
77012;SDS011;67260;53.130;17.982;2023-06-22T06:56:53;5.40;;;1.80;;
77012;SDS011;67260;53.130;17.982;2023-06-22T06:59:24;5.50;;;2.10;;
77012;SDS011;67260;53.130;17.982;2023-06-22T07:01:50;5.00;;;1.70;;
77012;SDS011;67260;53.130;17.982;2023-06-22T07:04:17;4.40;;;1.80;;
77012;SDS011;67260;53.130;17.982;2023-06-22T07:06:47;7.10;;;2.00;;
77012;SDS011;67260;53.130;17.982;2023-06-22T07:09:20;5.30;;;1.80;;
77012;SDS011;67260;53.130;17.982;2023-06-22T07:11:52;4.20;;;1.90;;
77012;SDS011;67260;53.130;17.982;2023-06-22T07:14:22;4.00;;;1.90;;
77012;SDS011;67260;53.130;17.982;2023-06-22T07:20:00;4.20;;;1.80;;
77012;SDS011;67260;53.130;17.982;2023-06-22T07:23:09;4.10;;;1.90;;
77012;SDS011;67260;53.130;17.982;2023-06-22T07:52:54;4.20;;;1.70;;
77012;SDS011;67260;53.130;17.982;2023-06-22T08:02:11;4.00;;;1.70;;
77012;SDS011;67260;53.130;17.982;2023-06-22T08:08:00;4.00;;;1.80;;
77012;SDS011;67260;53.130;17.982;2023-06-22T08:10:32;3.90;;;1.80;;
77012;SDS011;67260;53.130;17.982;2023-06-22T08:13:16;3.30;;;1.80;;
77012;SDS011;67260;53.130;17.982;2023-06-22T08:16:00;5.60;;;2.10;;
77012;SDS011;67260;53.130;17.982;2023-06-22T08:25:20;3.10;;;1.70;;
77012;SDS011;67260;53.130;17.982;2023-06-22T08:27:48;3.50;;;1.70;;
77012;SDS011;67260;53.130;17.982;2023-06-22T08:30:38;3.90;;;1.70;;
77012;SDS011;67260;53.130;17.982;2023-06-22T08:33:22;3.80;;;1.60;;
77012;SDS011;67260;53.130;17.982;2023-06-22T08:35:58;4.20;;;2.10;;
77012;SDS011;67260;53.130;17.982;2023-06-22T08:38:25;3.70;;;1.80;;
77012;SDS011;67260;53.130;17.982;2023-06-22T08:40:52;4.20;;;2.30;;
77012;SDS011;67260;53.130;17.982;2023-06-22T08:43:18;6.40;;;2.10;;
77012;SDS011;67260;53.130;17.982;2023-06-22T08:45:44;5.10;;;2.10;;
77012;SDS011;67260;53.130;17.982;2023-06-22T08:48:11;4.10;;;2.00;;
77012;SDS011;67260;53.130;17.982;2023-06-22T08:50:37;4.90;;;2.20;;
77012;SDS011;67260;53.130;17.982;2023-06-22T08:53:07;5.00;;;1.90;;
77012;SDS011;67260;53.130;17.982;2023-06-22T08:55:33;5.60;;;2.40;;
77012;SDS011;67260;53.130;17.982;2023-06-22T08:58:01;3.10;;;1.80;;
77012;SDS011;67260;53.130;17.982;2023-06-22T09:00:27;4.90;;;2.00;;
77012;SDS011;67260;53.130;17.982;2023-06-22T09:02:58;5.80;;;2.10;;
77012;SDS011;67260;53.130;17.982;2023-06-22T09:05:24;3.50;;;1.90;;
77012;SDS011;67260;53.130;17.982;2023-06-22T09:07:53;4.00;;;2.20;;
77012;SDS011;67260;53.130;17.982;2023-06-22T09:10:39;4.60;;;2.00;;
77012;SDS011;67260;53.130;17.982;2023-06-22T09:13:12;3.50;;;1.90;;
77012;SDS011;67260;53.130;17.982;2023-06-22T09:15:40;3.80;;;2.10;;
77012;SDS011;67260;53.130;17.982;2023-06-22T09:18:12;3.80;;;2.00;;
77012;SDS011;67260;53.130;17.982;2023-06-22T09:20:41;4.60;;;1.90;;
77012;SDS011;67260;53.130;17.982;2023-06-22T09:23:07;3.00;;;1.80;;
77012;SDS011;67260;53.130;17.982;2023-06-22T09:25:37;3.60;;;2.00;;
77012;SDS011;67260;53.130;17.982;2023-06-22T09:28:03;4.10;;;2.00;;
77012;SDS011;67260;53.130;17.982;2023-06-22T09:30:30;3.70;;;1.70;;
77012;SDS011;67260;53.130;17.982;2023-06-22T09:32:56;3.80;;;2.00;;
77012;SDS011;67260;53.130;17.982;2023-06-22T09:35:22;4.10;;;1.90;;
77012;SDS011;67260;53.130;17.982;2023-06-22T09:38:18;3.10;;;2.00;;
77012;SDS011;67260;53.130;17.982;2023-06-22T09:40:45;4.30;;;2.10;;
77012;SDS011;67260;53.130;17.982;2023-06-22T09:43:16;5.20;;;1.90;;
77012;SDS011;67260;53.130;17.982;2023-06-22T09:45:43;4.00;;;2.10;;
77012;SDS011;67260;53.130;17.982;2023-06-22T09:48:19;7.00;;;2.10;;
77012;SDS011;67260;53.130;17.982;2023-06-22T09:50:45;4.40;;;2.00;;
77012;SDS011;67260;53.130;17.982;2023-06-22T09:53:11;3.00;;;1.80;;
77012;SDS011;67260;53.130;17.982;2023-06-22T09:55:42;3.50;;;1.70;;
77012;SDS011;67260;53.130;17.982;2023-06-22T09:58:08;4.50;;;1.80;;
77012;SDS011;67260;53.130;17.982;2023-06-22T10:00:35;3.00;;;1.70;;
77012;SDS011;67260;53.130;17.982;2023-06-22T10:03:01;4.40;;;1.80;;
77012;SDS011;67260;53.130;17.982;2023-06-22T10:05:28;2.90;;;1.70;;
77012;SDS011;67260;53.130;17.982;2023-06-22T10:07:58;3.80;;;2.10;;
77012;SDS011;67260;53.130;17.982;2023-06-22T10:10:26;4.70;;;1.60;;
77012;SDS011;67260;53.130;17.982;2023-06-22T10:13:15;3.30;;;1.70;;
77012;SDS011;67260;53.130;17.982;2023-06-22T10:15:42;3.10;;;1.90;;
77012;SDS011;67260;53.130;17.982;2023-06-22T10:18:08;4.10;;;1.90;;
77012;SDS011;67260;53.130;17.982;2023-06-22T10:20:34;3.90;;;1.80;;
77012;SDS011;67260;53.130;17.982;2023-06-22T10:23:02;4.50;;;2.00;;
77012;SDS011;67260;53.130;17.982;2023-06-22T10:25:28;4.40;;;1.90;;
77012;SDS011;67260;53.130;17.982;2023-06-22T10:27:54;3.40;;;1.90;;
77012;SDS011;67260;53.130;17.982;2023-06-22T10:30:20;4.00;;;1.90;;
77012;SDS011;67260;53.130;17.982;2023-06-22T10:32:47;4.70;;;2.20;;
77012;SDS011;67260;53.130;17.982;2023-06-22T10:35:16;5.10;;;2.10;;
77012;SDS011;67260;53.130;17.982;2023-06-22T10:38:14;4.00;;;1.80;;
77012;SDS011;67260;53.130;17.982;2023-06-22T10:40:45;4.90;;;2.00;;
77012;SDS011;67260;53.130;17.982;2023-06-22T10:43:37;3.90;;;2.10;;
77012;SDS011;67260;53.130;17.982;2023-06-22T10:57:28;5.20;;;2.10;;
77012;SDS011;67260;53.130;17.982;2023-06-22T10:59:55;4.50;;;2.20;;
77012;SDS011;67260;53.130;17.982;2023-06-22T11:02:23;6.50;;;2.20;;
77012;SDS011;67260;53.130;17.982;2023-06-22T11:04:50;3.00;;;2.00;;
77012;SDS011;67260;53.130;17.982;2023-06-22T11:07:33;3.90;;;2.10;;
77012;SDS011;67260;53.130;17.982;2023-06-22T11:10:03;4.00;;;1.90;;
77012;SDS011;67260;53.130;17.982;2023-06-22T11:12:29;3.60;;;1.90;;
77012;SDS011;67260;53.130;17.982;2023-06-22T11:14:56;6.30;;;2.10;;
77012;SDS011;67260;53.130;17.982;2023-06-22T11:17:22;3.10;;;1.60;;
77012;SDS011;67260;53.130;17.982;2023-06-22T11:19:49;4.60;;;1.80;;
77012;SDS011;67260;53.130;17.982;2023-06-22T11:22:16;5.00;;;1.80;;
77012;SDS011;67260;53.130;17.982;2023-06-22T11:24:42;4.30;;;1.90;;
77012;SDS011;67260;53.130;17.982;2023-06-22T11:27:08;3.30;;;1.80;;
77012;SDS011;67260;53.130;17.982;2023-06-22T11:29:34;5.10;;;2.20;;
77012;SDS011;67260;53.130;17.982;2023-06-22T11:32:01;6.00;;;1.90;;
77012;SDS011;67260;53.130;17.982;2023-06-22T11:34:27;4.00;;;2.10;;
77012;SDS011;67260;53.130;17.982;2023-06-22T11:36:54;4.00;;;1.80;;
77012;SDS011;67260;53.130;17.982;2023-06-22T11:39:20;4.90;;;1.80;;
77012;SDS011;67260;53.130;17.982;2023-06-22T11:41:46;7.00;;;2.00;;
77012;SDS011;67260;53.130;17.982;2023-06-22T11:44:12;3.60;;;1.80;;
77012;SDS011;67260;53.130;17.982;2023-06-22T11:46:39;5.30;;;2.20;;
77012;SDS011;67260;53.130;17.982;2023-06-22T11:49:05;3.20;;;1.70;;
77012;SDS011;67260;53.130;17.982;2023-06-22T11:51:31;3.40;;;1.80;;
77012;SDS011;67260;53.130;17.982;2023-06-22T11:53:57;3.10;;;1.70;;
77012;SDS011;67260;53.130;17.982;2023-06-22T11:56:24;5.20;;;1.90;;
77012;SDS011;67260;53.130;17.982;2023-06-22T11:58:50;4.80;;;2.10;;
77012;SDS011;67260;53.130;17.982;2023-06-22T12:01:16;3.60;;;1.90;;
77012;SDS011;67260;53.130;17.982;2023-06-22T12:03:43;3.90;;;1.90;;
77012;SDS011;67260;53.130;17.982;2023-06-22T12:06:59;4.20;;;2.10;;
77012;SDS011;67260;53.130;17.982;2023-06-22T12:09:29;3.80;;;1.90;;
77012;SDS011;67260;53.130;17.982;2023-06-22T12:11:55;5.80;;;1.90;;
77012;SDS011;67260;53.130;17.982;2023-06-22T12:14:23;4.00;;;1.80;;
77012;SDS011;67260;53.130;17.982;2023-06-22T12:16:50;3.80;;;1.80;;
77012;SDS011;67260;53.130;17.982;2023-06-22T12:19:16;5.60;;;2.10;;
77012;SDS011;67260;53.130;17.982;2023-06-22T12:21:42;5.50;;;1.70;;
77012;SDS011;67260;53.130;17.982;2023-06-22T12:24:11;4.40;;;1.90;;
77012;SDS011;67260;53.130;17.982;2023-06-22T12:26:38;4.40;;;2.20;;
77012;SDS011;67260;53.130;17.982;2023-06-22T12:29:04;5.40;;;2.00;;
77012;SDS011;67260;53.130;17.982;2023-06-22T12:31:30;6.50;;;2.20;;
77012;SDS011;67260;53.130;17.982;2023-06-22T12:33:56;4.80;;;1.80;;
77012;SDS011;67260;53.130;17.982;2023-06-22T12:36:22;3.50;;;1.80;;
77012;SDS011;67260;53.130;17.982;2023-06-22T12:38:48;3.80;;;2.10;;
77012;SDS011;67260;53.130;17.982;2023-06-22T12:41:14;3.70;;;2.00;;
77012;SDS011;67260;53.130;17.982;2023-06-22T12:43:40;3.90;;;2.30;;
77012;SDS011;67260;53.130;17.982;2023-06-22T12:46:06;4.50;;;2.10;;
77012;SDS011;67260;53.130;17.982;2023-06-22T12:48:32;5.50;;;1.90;;
77012;SDS011;67260;53.130;17.982;2023-06-22T12:50:58;4.30;;;2.30;;
77012;SDS011;67260;53.130;17.982;2023-06-22T12:53:24;4.00;;;1.90;;
77012;SDS011;67260;53.130;17.982;2023-06-22T12:55:52;3.60;;;2.00;;
77012;SDS011;67260;53.130;17.982;2023-06-22T12:58:18;4.50;;;2.20;;
77012;SDS011;67260;53.130;17.982;2023-06-22T13:00:45;5.30;;;2.20;;
77012;SDS011;67260;53.130;17.982;2023-06-22T13:03:11;4.90;;;2.00;;
77012;SDS011;67260;53.130;17.982;2023-06-22T13:05:37;3.70;;;2.00;;
77012;SDS011;67260;53.130;17.982;2023-06-22T13:08:04;4.30;;;2.10;;
77012;SDS011;67260;53.130;17.982;2023-06-22T13:10:30;4.20;;;2.30;;
77012;SDS011;67260;53.130;17.982;2023-06-22T13:12:56;3.90;;;2.00;;
77012;SDS011;67260;53.130;17.982;2023-06-22T13:15:27;3.90;;;2.10;;
77012;SDS011;67260;53.130;17.982;2023-06-22T13:17:54;4.80;;;2.60;;
77012;SDS011;67260;53.130;17.982;2023-06-22T13:20:21;4.50;;;2.20;;
77012;SDS011;67260;53.130;17.982;2023-06-22T13:25:45;4.60;;;2.70;;
77012;SDS011;67260;53.130;17.982;2023-06-22T13:28:12;4.00;;;2.30;;
77012;SDS011;67260;53.130;17.982;2023-06-22T13:30:41;5.00;;;2.40;;
77012;SDS011;67260;53.130;17.982;2023-06-22T13:33:18;3.90;;;2.20;;
77012;SDS011;67260;53.130;17.982;2023-06-22T13:35:54;4.30;;;2.30;;
77012;SDS011;67260;53.130;17.982;2023-06-22T13:38:21;4.50;;;2.20;;
77012;SDS011;67260;53.130;17.982;2023-06-22T13:40:48;4.10;;;2.30;;
77012;SDS011;67260;53.130;17.982;2023-06-22T13:43:16;4.50;;;2.40;;
77012;SDS011;67260;53.130;17.982;2023-06-22T13:45:43;4.70;;;2.80;;
77012;SDS011;67260;53.130;17.982;2023-06-22T13:48:09;6.10;;;2.20;;
77012;SDS011;67260;53.130;17.982;2023-06-22T13:50:35;3.90;;;2.30;;
77012;SDS011;67260;53.130;17.982;2023-06-22T13:53:01;4.40;;;2.40;;
77012;SDS011;67260;53.130;17.982;2023-06-22T13:55:27;5.00;;;2.50;;
77012;SDS011;67260;53.130;17.982;2023-06-22T13:57:55;4.70;;;2.90;;
77012;SDS011;67260;53.130;17.982;2023-06-22T14:00:21;5.00;;;2.40;;
77012;SDS011;67260;53.130;17.982;2023-06-22T14:02:53;4.20;;;2.30;;
77012;SDS011;67260;53.130;17.982;2023-06-22T14:05:27;5.20;;;2.20;;
77012;SDS011;67260;53.130;17.982;2023-06-22T14:07:53;4.50;;;2.80;;
77012;SDS011;67260;53.130;17.982;2023-06-22T14:10:19;3.80;;;2.30;;
77012;SDS011;67260;53.130;17.982;2023-06-22T14:12:46;4.50;;;2.40;;
77012;SDS011;67260;53.130;17.982;2023-06-22T14:15:12;3.40;;;2.00;;
77012;SDS011;67260;53.130;17.982;2023-06-22T14:17:41;4.40;;;2.30;;
77012;SDS011;67260;53.130;17.982;2023-06-22T14:20:10;4.40;;;2.30;;
77012;SDS011;67260;53.130;17.982;2023-06-22T14:22:36;4.60;;;2.20;;
77012;SDS011;67260;53.130;17.982;2023-06-22T14:25:04;4.10;;;2.30;;
77012;SDS011;67260;53.130;17.982;2023-06-22T14:27:37;4.30;;;2.30;;
77012;SDS011;67260;53.130;17.982;2023-06-22T14:30:03;4.30;;;2.30;;
77012;SDS011;67260;53.130;17.982;2023-06-22T14:32:30;4.20;;;2.50;;
77012;SDS011;67260;53.130;17.982;2023-06-22T14:34:56;4.00;;;2.40;;
77012;SDS011;67260;53.130;17.982;2023-06-22T14:37:22;4.40;;;2.20;;
77012;SDS011;67260;53.130;17.982;2023-06-22T14:39:49;6.30;;;3.00;;
77012;SDS011;67260;53.130;17.982;2023-06-22T14:42:15;5.00;;;2.60;;
77012;SDS011;67260;53.130;17.982;2023-06-22T14:44:50;3.90;;;2.20;;
77012;SDS011;67260;53.130;17.982;2023-06-22T14:47:16;4.20;;;2.30;;
77012;SDS011;67260;53.130;17.982;2023-06-22T14:49:44;5.50;;;2.70;;
77012;SDS011;67260;53.130;17.982;2023-06-22T14:52:25;3.60;;;2.20;;
77012;SDS011;67260;53.130;17.982;2023-06-22T14:55:51;4.10;;;2.40;;
77012;SDS011;67260;53.130;17.982;2023-06-22T14:58:26;7.20;;;2.60;;
77012;SDS011;67260;53.130;17.982;2023-06-22T15:01:00;3.80;;;2.20;;
77012;SDS011;67260;53.130;17.982;2023-06-22T15:03:26;4.10;;;2.10;;
77012;SDS011;67260;53.130;17.982;2023-06-22T15:06:08;4.10;;;2.10;;
77012;SDS011;67260;53.130;17.982;2023-06-22T15:08:41;4.10;;;2.20;;
77012;SDS011;67260;53.130;17.982;2023-06-22T15:11:08;4.50;;;2.30;;
77012;SDS011;67260;53.130;17.982;2023-06-22T15:13:41;3.80;;;2.30;;
77012;SDS011;67260;53.130;17.982;2023-06-22T15:16:09;4.70;;;2.60;;
77012;SDS011;67260;53.130;17.982;2023-06-22T15:18:42;6.60;;;2.30;;
77012;SDS011;67260;53.130;17.982;2023-06-22T15:21:13;4.20;;;2.20;;
77012;SDS011;67260;53.130;17.982;2023-06-22T15:23:39;4.70;;;2.90;;
77012;SDS011;67260;53.130;17.982;2023-06-22T15:26:06;4.00;;;2.40;;
77012;SDS011;67260;53.130;17.982;2023-06-22T15:28:32;4.40;;;2.80;;
77012;SDS011;67260;53.130;17.982;2023-06-22T15:31:04;6.90;;;2.60;;
77012;SDS011;67260;53.130;17.982;2023-06-22T15:33:30;6.60;;;2.80;;
77012;SDS011;67260;53.130;17.982;2023-06-22T15:36:05;5.50;;;2.40;;
77012;SDS011;67260;53.130;17.982;2023-06-22T15:38:33;7.50;;;2.60;;
77012;SDS011;67260;53.130;17.982;2023-06-22T15:40:59;5.30;;;2.80;;
77012;SDS011;67260;53.130;17.982;2023-06-22T15:43:25;6.90;;;2.80;;
77012;SDS011;67260;53.130;17.982;2023-06-22T15:45:56;5.10;;;3.00;;
77012;SDS011;67260;53.130;17.982;2023-06-22T15:48:29;6.70;;;3.00;;
77012;SDS011;67260;53.130;17.982;2023-06-22T15:51:20;5.30;;;2.50;;
77012;SDS011;67260;53.130;17.982;2023-06-22T15:54:12;4.20;;;2.30;;
77012;SDS011;67260;53.130;17.982;2023-06-22T15:56:38;4.10;;;2.60;;
77012;SDS011;67260;53.130;17.982;2023-06-22T15:59:04;3.90;;;2.20;;
77012;SDS011;67260;53.130;17.982;2023-06-22T16:01:29;6.10;;;2.60;;
77012;SDS011;67260;53.130;17.982;2023-06-22T16:06:30;4.30;;;2.40;;
77012;SDS011;67260;53.130;17.982;2023-06-22T16:08:58;4.40;;;2.00;;
77012;SDS011;67260;53.130;17.982;2023-06-22T16:11:24;3.70;;;2.00;;
77012;SDS011;67260;53.130;17.982;2023-06-22T16:16:22;4.10;;;2.30;;